Terminal Aerodrome Forecast
Issued by NWS Albany, NY

Home | Current Version | Previous Version | Text Only | Print | Product List | Glossary On
Versions: 1 2 3 4 5 6 7 8 9 10 11 12 13 14 15 16
000
FTUS41 KALY 260200 AAB
TAFGFL
TAF AMD
KGFL 260200Z 2602/2624 04007KT P6SM -RA FEW045 OVC070
     FM260500 03007KT 6SM -RA OVC025
     FM260900 02006KT P6SM OVC030
     FM262200 08004KT P6SM BKN025=

USA.gov is the U.S. government's official web portal to all federal, state and local government web resources and services.